createdAt,value
2022-12-01T00:04:44.475Z,200
2022-12-01T00:24:44.524Z,200
2022-12-01T00:44:44.495Z,203
2022-12-01T01:24:44.575Z,199
2022-12-01T01:44:44.579Z,202
2022-12-01T02:04:44.623Z,200
2022-12-01T02:24:44.638Z,195
2022-12-01T03:04:44.686Z,197
2022-12-01T03:24:44.725Z,196
2022-12-01T03:44:44.759Z,200
2022-12-01T04:04:51.804Z,197
2022-12-01T04:24:44.830Z,193
2022-12-01T04:44:44.862Z,199
2022-12-01T05:04:51.876Z,198
2022-12-01T05:24:44.906Z,201
2022-12-01T05:44:44.931Z,198
2022-12-01T06:04:44.956Z,197
2022-12-01T06:24:45.008Z,196
2022-12-01T06:44:45.029Z,198
2022-12-01T07:04:45.057Z,195
2022-12-01T07:24:45.077Z,192
2022-12-01T07:44:45.112Z,196
2022-12-01T08:04:45.172Z,197
2022-12-01T08:24:45.175Z,199
2022-12-01T08:44:45.219Z,195
2022-12-01T09:04:45.212Z,192
2022-12-01T09:24:45.278Z,197
2022-12-01T09:44:45.294Z,192
2022-12-01T10:04:45.323Z,193
2022-12-01T10:24:45.339Z,193
2022-12-01T10:44:45.432Z,196
2022-12-01T11:04:45.733Z,195
2022-12-01T11:24:45.433Z,196
2022-12-01T11:44:51.620Z,192
2022-12-01T12:04:45.467Z,197
2022-12-01T12:24:45.837Z,199
2022-12-01T12:44:45.561Z,198
2022-12-01T13:04:45.607Z,193
2022-12-01T13:24:45.627Z,197
2022-12-01T13:44:45.624Z,193
2022-12-01T14:04:45.650Z,195
2022-12-01T14:24:45.689Z,192
2022-12-01T14:44:45.774Z,191
2022-12-01T15:04:45.746Z,195
2022-12-01T15:24:45.789Z,194
2022-12-01T15:44:45.809Z,196
2022-12-01T16:04:45.845Z,192
2022-12-01T16:24:45.882Z,193
2022-12-01T16:44:45.912Z,190
2022-12-01T17:04:45.920Z,192
2022-12-01T17:24:45.952Z,194
2022-12-01T17:44:45.994Z,187
2022-12-01T18:04:46.097Z,194
2022-12-01T18:24:46.045Z,189
2022-12-01T18:44:46.070Z,191
2022-12-01T19:04:46.133Z,191
2022-12-01T19:24:49.963Z,191
2022-12-01T19:44:46.149Z,190
2022-12-01T20:04:46.216Z,189
2022-12-01T20:24:46.244Z,192
2022-12-01T20:44:46.286Z,186
2022-12-01T21:04:46.286Z,195
2022-12-01T21:24:46.308Z,190
2022-12-01T21:44:46.371Z,194
2022-12-01T22:04:46.395Z,187
2022-12-01T22:24:46.430Z,191
2022-12-01T22:44:46.445Z,188
2022-12-01T23:04:46.516Z,188
2022-12-01T23:24:46.558Z,188
2022-12-01T23:44:46.559Z,189
